sensor_id;sensor_type;location;lat;lon;timestamp;P1;durP1;ratioP1;P2;durP2;ratioP2
23474;SDS011;11910;52.086;21.066;2023-03-05T00:02:03;14.02;;;6.75;;
23474;SDS011;11910;52.086;21.066;2023-03-05T00:04:30;14.88;;;7.03;;
23474;SDS011;11910;52.086;21.066;2023-03-05T00:06:55;14.50;;;6.88;;
23474;SDS011;11910;52.086;21.066;2023-03-05T00:09:21;16.35;;;7.25;;
23474;SDS011;11910;52.086;21.066;2023-03-05T00:11:46;14.88;;;7.07;;
23474;SDS011;11910;52.086;21.066;2023-03-05T00:14:12;20.42;;;7.88;;
23474;SDS011;11910;52.086;21.066;2023-03-05T00:16:37;16.67;;;7.93;;
23474;SDS011;11910;52.086;21.066;2023-03-05T00:19:03;19.60;;;8.68;;
23474;SDS011;11910;52.086;21.066;2023-03-05T00:21:31;16.70;;;7.53;;
23474;SDS011;11910;52.086;21.066;2023-03-05T00:23:59;16.45;;;7.72;;
23474;SDS011;11910;52.086;21.066;2023-03-05T00:26:26;21.38;;;8.40;;
23474;SDS011;11910;52.086;21.066;2023-03-05T00:28:53;18.17;;;8.55;;
23474;SDS011;11910;52.086;21.066;2023-03-05T00:31:20;18.48;;;8.07;;
23474;SDS011;11910;52.086;21.066;2023-03-05T00:33:51;21.42;;;8.05;;
23474;SDS011;11910;52.086;21.066;2023-03-05T00:36:18;18.58;;;7.78;;
23474;SDS011;11910;52.086;21.066;2023-03-05T00:38:43;15.40;;;7.25;;
23474;SDS011;11910;52.086;21.066;2023-03-05T00:41:09;17.35;;;7.47;;
23474;SDS011;11910;52.086;21.066;2023-03-05T00:43:35;21.73;;;9.05;;
23474;SDS011;11910;52.086;21.066;2023-03-05T00:46:00;23.73;;;10.00;;
23474;SDS011;11910;52.086;21.066;2023-03-05T00:48:26;23.27;;;9.63;;
23474;SDS011;11910;52.086;21.066;2023-03-05T00:50:51;19.73;;;8.80;;
23474;SDS011;11910;52.086;21.066;2023-03-05T00:53:17;21.88;;;9.20;;
23474;SDS011;11910;52.086;21.066;2023-03-05T00:55:43;20.55;;;8.82;;
23474;SDS011;11910;52.086;21.066;2023-03-05T00:58:08;19.48;;;8.25;;
23474;SDS011;11910;52.086;21.066;2023-03-05T01:00:34;17.70;;;7.85;;
23474;SDS011;11910;52.086;21.066;2023-03-05T01:03:01;18.35;;;7.85;;
23474;SDS011;11910;52.086;21.066;2023-03-05T01:05:27;17.38;;;7.50;;
23474;SDS011;11910;52.086;21.066;2023-03-05T01:07:53;17.85;;;7.53;;
23474;SDS011;11910;52.086;21.066;2023-03-05T01:10:19;17.25;;;7.90;;
23474;SDS011;11910;52.086;21.066;2023-03-05T01:12:47;20.25;;;9.45;;
23474;SDS011;11910;52.086;21.066;2023-03-05T01:15:13;20.95;;;9.52;;
23474;SDS011;11910;52.086;21.066;2023-03-05T01:17:39;17.13;;;8.40;;
23474;SDS011;11910;52.086;21.066;2023-03-05T01:20:05;22.05;;;10.95;;
23474;SDS011;11910;52.086;21.066;2023-03-05T01:22:31;26.55;;;12.07;;
23474;SDS011;11910;52.086;21.066;2023-03-05T01:24:56;27.85;;;11.85;;
23474;SDS011;11910;52.086;21.066;2023-03-05T01:27:22;22.13;;;9.73;;
23474;SDS011;11910;52.086;21.066;2023-03-05T01:29:48;20.70;;;9.88;;
23474;SDS011;11910;52.086;21.066;2023-03-05T01:32:13;19.92;;;8.73;;
23474;SDS011;11910;52.086;21.066;2023-03-05T01:34:39;21.88;;;9.20;;
23474;SDS011;11910;52.086;21.066;2023-03-05T01:37:05;20.90;;;8.77;;
23474;SDS011;11910;52.086;21.066;2023-03-05T01:39:31;19.27;;;8.40;;
23474;SDS011;11910;52.086;21.066;2023-03-05T01:41:57;18.15;;;8.50;;
23474;SDS011;11910;52.086;21.066;2023-03-05T01:44:24;20.08;;;7.95;;
23474;SDS011;11910;52.086;21.066;2023-03-05T01:46:51;19.98;;;8.45;;
23474;SDS011;11910;52.086;21.066;2023-03-05T01:49:24;20.38;;;8.90;;
23474;SDS011;11910;52.086;21.066;2023-03-05T01:54:48;17.30;;;8.48;;
23474;SDS011;11910;52.086;21.066;2023-03-05T01:57:21;18.67;;;8.32;;
23474;SDS011;11910;52.086;21.066;2023-03-05T01:59:51;18.23;;;8.82;;
23474;SDS011;11910;52.086;21.066;2023-03-05T02:02:20;18.98;;;8.20;;
23474;SDS011;11910;52.086;21.066;2023-03-05T02:04:50;18.60;;;7.93;;
23474;SDS011;11910;52.086;21.066;2023-03-05T02:07:19;16.65;;;7.80;;
23474;SDS011;11910;52.086;21.066;2023-03-05T02:09:45;17.50;;;7.57;;
23474;SDS011;11910;52.086;21.066;2023-03-05T02:12:11;13.75;;;7.05;;
23474;SDS011;11910;52.086;21.066;2023-03-05T02:14:38;14.98;;;7.35;;
23474;SDS011;11910;52.086;21.066;2023-03-05T02:17:06;14.20;;;7.25;;
23474;SDS011;11910;52.086;21.066;2023-03-05T02:19:49;17.63;;;7.55;;
23474;SDS011;11910;52.086;21.066;2023-03-05T02:22:16;17.17;;;7.78;;
23474;SDS011;11910;52.086;21.066;2023-03-05T02:24:43;17.15;;;7.85;;
23474;SDS011;11910;52.086;21.066;2023-03-05T02:27:09;18.50;;;7.88;;
23474;SDS011;11910;52.086;21.066;2023-03-05T02:29:36;17.67;;;7.68;;
23474;SDS011;11910;52.086;21.066;2023-03-05T02:32:05;15.48;;;7.40;;
23474;SDS011;11910;52.086;21.066;2023-03-05T02:34:30;17.83;;;7.88;;
23474;SDS011;11910;52.086;21.066;2023-03-05T02:36:56;20.05;;;7.85;;
23474;SDS011;11910;52.086;21.066;2023-03-05T02:39:22;17.20;;;7.53;;
23474;SDS011;11910;52.086;21.066;2023-03-05T02:41:47;18.08;;;7.95;;
23474;SDS011;11910;52.086;21.066;2023-03-05T02:44:13;18.88;;;7.88;;
23474;SDS011;11910;52.086;21.066;2023-03-05T02:46:39;19.13;;;8.20;;
23474;SDS011;11910;52.086;21.066;2023-03-05T02:49:04;20.63;;;8.50;;
23474;SDS011;11910;52.086;21.066;2023-03-05T02:51:30;18.05;;;7.65;;
23474;SDS011;11910;52.086;21.066;2023-03-05T02:53:55;20.23;;;7.72;;
23474;SDS011;11910;52.086;21.066;2023-03-05T02:56:21;20.80;;;8.20;;
23474;SDS011;11910;52.086;21.066;2023-03-05T02:58:47;18.88;;;8.18;;
23474;SDS011;11910;52.086;21.066;2023-03-05T03:01:12;22.10;;;8.50;;
23474;SDS011;11910;52.086;21.066;2023-03-05T03:03:38;20.75;;;7.95;;
23474;SDS011;11910;52.086;21.066;2023-03-05T03:06:04;16.33;;;8.15;;
23474;SDS011;11910;52.086;21.066;2023-03-05T03:08:30;20.27;;;8.75;;
23474;SDS011;11910;52.086;21.066;2023-03-05T03:10:55;18.52;;;8.90;;
23474;SDS011;11910;52.086;21.066;2023-03-05T03:16:00;23.45;;;8.63;;
23474;SDS011;11910;52.086;21.066;2023-03-05T03:18:27;18.50;;;8.05;;
23474;SDS011;11910;52.086;21.066;2023-03-05T03:20:53;20.50;;;8.38;;
23474;SDS011;11910;52.086;21.066;2023-03-05T03:23:18;20.52;;;7.93;;
23474;SDS011;11910;52.086;21.066;2023-03-05T03:25:44;21.00;;;8.15;;
23474;SDS011;11910;52.086;21.066;2023-03-05T03:28:09;18.92;;;8.23;;
23474;SDS011;11910;52.086;21.066;2023-03-05T03:30:35;23.98;;;8.63;;
23474;SDS011;11910;52.086;21.066;2023-03-05T03:33:00;19.92;;;8.70;;
23474;SDS011;11910;52.086;21.066;2023-03-05T03:35:26;18.48;;;8.32;;
23474;SDS011;11910;52.086;21.066;2023-03-05T03:37:51;22.52;;;9.05;;
23474;SDS011;11910;52.086;21.066;2023-03-05T03:40:17;22.17;;;8.70;;
23474;SDS011;11910;52.086;21.066;2023-03-05T03:42:43;19.23;;;8.60;;
23474;SDS011;11910;52.086;21.066;2023-03-05T03:45:08;22.23;;;9.13;;
23474;SDS011;11910;52.086;21.066;2023-03-05T03:47:34;18.63;;;8.45;;
23474;SDS011;11910;52.086;21.066;2023-03-05T03:50:00;18.38;;;9.00;;
23474;SDS011;11910;52.086;21.066;2023-03-05T03:52:26;20.70;;;8.88;;
23474;SDS011;11910;52.086;21.066;2023-03-05T03:54:51;19.80;;;9.15;;
23474;SDS011;11910;52.086;21.066;2023-03-05T03:57:19;19.88;;;8.43;;
23474;SDS011;11910;52.086;21.066;2023-03-05T03:59:45;19.98;;;8.35;;
23474;SDS011;11910;52.086;21.066;2023-03-05T04:02:10;17.42;;;8.05;;
23474;SDS011;11910;52.086;21.066;2023-03-05T04:04:36;23.02;;;8.40;;
23474;SDS011;11910;52.086;21.066;2023-03-05T04:07:01;19.67;;;8.65;;
23474;SDS011;11910;52.086;21.066;2023-03-05T04:09:27;23.48;;;8.68;;
23474;SDS011;11910;52.086;21.066;2023-03-05T04:11:53;22.23;;;8.68;;
23474;SDS011;11910;52.086;21.066;2023-03-05T04:14:18;21.38;;;8.77;;
23474;SDS011;11910;52.086;21.066;2023-03-05T04:16:44;17.38;;;8.10;;
23474;SDS011;11910;52.086;21.066;2023-03-05T04:19:09;17.70;;;8.27;;
23474;SDS011;11910;52.086;21.066;2023-03-05T04:21:35;21.15;;;8.43;;
23474;SDS011;11910;52.086;21.066;2023-03-05T04:24:00;22.83;;;9.02;;
23474;SDS011;11910;52.086;21.066;2023-03-05T04:26:26;20.02;;;8.82;;
23474;SDS011;11910;52.086;21.066;2023-03-05T04:28:52;18.45;;;8.38;;
23474;SDS011;11910;52.086;21.066;2023-03-05T04:31:17;19.33;;;8.10;;
23474;SDS011;11910;52.086;21.066;2023-03-05T04:33:44;17.60;;;8.18;;
23474;SDS011;11910;52.086;21.066;2023-03-05T04:36:10;19.67;;;8.02;;
23474;SDS011;11910;52.086;21.066;2023-03-05T04:38:35;18.73;;;7.78;;
23474;SDS011;11910;52.086;21.066;2023-03-05T04:41:01;16.17;;;7.28;;
23474;SDS011;11910;52.086;21.066;2023-03-05T04:43:26;17.02;;;7.78;;
23474;SDS011;11910;52.086;21.066;2023-03-05T04:45:53;19.08;;;8.18;;
23474;SDS011;11910;52.086;21.066;2023-03-05T04:48:19;15.25;;;6.85;;
23474;SDS011;11910;52.086;21.066;2023-03-05T04:50:44;15.30;;;7.55;;
23474;SDS011;11910;52.086;21.066;2023-03-05T04:53:10;17.63;;;7.28;;
23474;SDS011;11910;52.086;21.066;2023-03-05T04:55:35;18.02;;;7.43;;
23474;SDS011;11910;52.086;21.066;2023-03-05T04:58:01;17.15;;;7.40;;
23474;SDS011;11910;52.086;21.066;2023-03-05T05:00:27;17.05;;;7.43;;
23474;SDS011;11910;52.086;21.066;2023-03-05T05:02:52;18.80;;;7.53;;
23474;SDS011;11910;52.086;21.066;2023-03-05T05:05:19;17.13;;;7.30;;
23474;SDS011;11910;52.086;21.066;2023-03-05T05:07:47;17.35;;;7.07;;
23474;SDS011;11910;52.086;21.066;2023-03-05T05:10:13;14.73;;;6.60;;
23474;SDS011;11910;52.086;21.066;2023-03-05T05:12:39;15.25;;;6.50;;
23474;SDS011;11910;52.086;21.066;2023-03-05T05:15:05;11.85;;;5.95;;
23474;SDS011;11910;52.086;21.066;2023-03-05T05:17:32;12.57;;;6.07;;
23474;SDS011;11910;52.086;21.066;2023-03-05T05:19:58;13.05;;;6.40;;
23474;SDS011;11910;52.086;21.066;2023-03-05T05:22:25;13.27;;;6.22;;
23474;SDS011;11910;52.086;21.066;2023-03-05T05:24:52;25.88;;;6.80;;
23474;SDS011;11910;52.086;21.066;2023-03-05T05:27:17;12.35;;;5.80;;
23474;SDS011;11910;52.086;21.066;2023-03-05T05:29:43;16.88;;;5.85;;
23474;SDS011;11910;52.086;21.066;2023-03-05T05:32:10;11.18;;;5.65;;
23474;SDS011;11910;52.086;21.066;2023-03-05T05:34:36;14.30;;;5.90;;
23474;SDS011;11910;52.086;21.066;2023-03-05T05:37:01;15.93;;;5.90;;
23474;SDS011;11910;52.086;21.066;2023-03-05T05:39:27;17.38;;;5.82;;
23474;SDS011;11910;52.086;21.066;2023-03-05T05:41:52;16.33;;;6.38;;
23474;SDS011;11910;52.086;21.066;2023-03-05T05:44:18;12.65;;;5.93;;
23474;SDS011;11910;52.086;21.066;2023-03-05T05:46:44;13.90;;;5.90;;
23474;SDS011;11910;52.086;21.066;2023-03-05T05:49:09;12.32;;;5.90;;
23474;SDS011;11910;52.086;21.066;2023-03-05T05:51:35;13.13;;;5.93;;
23474;SDS011;11910;52.086;21.066;2023-03-05T05:54:00;14.93;;;5.45;;
23474;SDS011;11910;52.086;21.066;2023-03-05T05:56:26;16.85;;;6.10;;
23474;SDS011;11910;52.086;21.066;2023-03-05T05:58:52;13.18;;;6.18;;
23474;SDS011;11910;52.086;21.066;2023-03-05T06:01:20;14.18;;;5.97;;
23474;SDS011;11910;52.086;21.066;2023-03-05T06:03:54;12.18;;;5.32;;
23474;SDS011;11910;52.086;21.066;2023-03-05T06:06:20;12.90;;;5.20;;
23474;SDS011;11910;52.086;21.066;2023-03-05T06:08:48;13.40;;;5.28;;
23474;SDS011;11910;52.086;21.066;2023-03-05T06:11:14;12.23;;;5.22;;
23474;SDS011;11910;52.086;21.066;2023-03-05T06:13:40;10.65;;;5.00;;
23474;SDS011;11910;52.086;21.066;2023-03-05T06:16:07;13.35;;;5.20;;
23474;SDS011;11910;52.086;21.066;2023-03-05T06:18:36;12.10;;;4.97;;
23474;SDS011;11910;52.086;21.066;2023-03-05T06:21:05;12.27;;;4.80;;
23474;SDS011;11910;52.086;21.066;2023-03-05T06:23:32;10.05;;;4.63;;
23474;SDS011;11910;52.086;21.066;2023-03-05T06:25:59;11.45;;;4.93;;
23474;SDS011;11910;52.086;21.066;2023-03-05T06:28:26;10.35;;;4.63;;
23474;SDS011;11910;52.086;21.066;2023-03-05T06:31:03;11.13;;;4.97;;
23474;SDS011;11910;52.086;21.066;2023-03-05T06:33:29;12.40;;;4.80;;
23474;SDS011;11910;52.086;21.066;2023-03-05T06:35:54;10.02;;;4.68;;
23474;SDS011;11910;52.086;21.066;2023-03-05T06:38:20;10.82;;;4.57;;
23474;SDS011;11910;52.086;21.066;2023-03-05T06:40:46;11.85;;;5.32;;
23474;SDS011;11910;52.086;21.066;2023-03-05T06:43:11;12.55;;;4.82;;
23474;SDS011;11910;52.086;21.066;2023-03-05T06:45:37;10.80;;;4.85;;
23474;SDS011;11910;52.086;21.066;2023-03-05T06:48:03;10.10;;;4.07;;
23474;SDS011;11910;52.086;21.066;2023-03-05T06:50:28;10.32;;;4.63;;
23474;SDS011;11910;52.086;21.066;2023-03-05T06:52:54;10.73;;;4.72;;
23474;SDS011;11910;52.086;21.066;2023-03-05T06:55:19;11.02;;;4.38;;
23474;SDS011;11910;52.086;21.066;2023-03-05T06:57:45;8.60;;;4.22;;
23474;SDS011;11910;52.086;21.066;2023-03-05T07:00:11;10.80;;;4.40;;
23474;SDS011;11910;52.086;21.066;2023-03-05T07:02:37;9.77;;;4.53;;
23474;SDS011;11910;52.086;21.066;2023-03-05T07:05:03;11.60;;;4.47;;
23474;SDS011;11910;52.086;21.066;2023-03-05T07:07:30;10.05;;;4.53;;
23474;SDS011;11910;52.086;21.066;2023-03-05T07:09:57;11.05;;;4.57;;
23474;SDS011;11910;52.086;21.066;2023-03-05T07:12:22;12.57;;;4.72;;
23474;SDS011;11910;52.086;21.066;2023-03-05T07:14:48;10.90;;;4.75;;
23474;SDS011;11910;52.086;21.066;2023-03-05T07:17:14;14.23;;;5.00;;
23474;SDS011;11910;52.086;21.066;2023-03-05T07:19:39;10.93;;;4.35;;
23474;SDS011;11910;52.086;21.066;2023-03-05T07:22:06;8.77;;;4.43;;
23474;SDS011;11910;52.086;21.066;2023-03-05T07:24:32;8.75;;;4.40;;
23474;SDS011;11910;52.086;21.066;2023-03-05T07:26:58;12.68;;;5.03;;
23474;SDS011;11910;52.086;21.066;2023-03-05T07:29:24;14.55;;;6.40;;
23474;SDS011;11910;52.086;21.066;2023-03-05T07:31:51;9.90;;;4.65;;
23474;SDS011;11910;52.086;21.066;2023-03-05T07:34:17;10.00;;;4.45;;
23474;SDS011;11910;52.086;21.066;2023-03-05T07:36:43;10.55;;;4.88;;
23474;SDS011;11910;52.086;21.066;2023-03-05T07:39:11;9.50;;;5.07;;
23474;SDS011;11910;52.086;21.066;2023-03-05T07:41:37;9.77;;;4.80;;
23474;SDS011;11910;52.086;21.066;2023-03-05T07:44:03;9.90;;;5.13;;
23474;SDS011;11910;52.086;21.066;2023-03-05T07:46:30;12.55;;;5.20;;
23474;SDS011;11910;52.086;21.066;2023-03-05T07:48:58;9.60;;;4.80;;
23474;SDS011;11910;52.086;21.066;2023-03-05T07:51:24;11.68;;;5.78;;
23474;SDS011;11910;52.086;21.066;2023-03-05T07:53:51;10.80;;;5.10;;
23474;SDS011;11910;52.086;21.066;2023-03-05T07:56:22;9.30;;;4.13;;
23474;SDS011;11910;52.086;21.066;2023-03-05T07:58:55;9.65;;;4.95;;
23474;SDS011;11910;52.086;21.066;2023-03-05T08:01:25;10.32;;;4.80;;
23474;SDS011;11910;52.086;21.066;2023-03-05T08:03:51;8.95;;;4.85;;
23474;SDS011;11910;52.086;21.066;2023-03-05T08:06:16;11.48;;;4.53;;
23474;SDS011;11910;52.086;21.066;2023-03-05T08:08:42;9.40;;;4.97;;
23474;SDS011;11910;52.086;21.066;2023-03-05T08:11:09;8.82;;;5.07;;
23474;SDS011;11910;52.086;21.066;2023-03-05T08:13:38;11.43;;;4.88;;
23474;SDS011;11910;52.086;21.066;2023-03-05T08:16:06;12.10;;;5.57;;
23474;SDS011;11910;52.086;21.066;2023-03-05T08:18:33;13.15;;;5.03;;
23474;SDS011;11910;52.086;21.066;2023-03-05T08:20:59;11.43;;;5.10;;
23474;SDS011;11910;52.086;21.066;2023-03-05T08:23:25;9.23;;;4.40;;
23474;SDS011;11910;52.086;21.066;2023-03-05T08:25:51;7.80;;;4.25;;
23474;SDS011;11910;52.086;21.066;2023-03-05T08:28:17;7.82;;;4.25;;
23474;SDS011;11910;52.086;21.066;2023-03-05T08:30:44;9.18;;;4.25;;
23474;SDS011;11910;52.086;21.066;2023-03-05T08:33:12;8.32;;;4.60;;
23474;SDS011;11910;52.086;21.066;2023-03-05T08:35:38;10.55;;;4.50;;
23474;SDS011;11910;52.086;21.066;2023-03-05T08:38:04;8.52;;;4.13;;
23474;SDS011;11910;52.086;21.066;2023-03-05T08:40:30;9.77;;;5.30;;
23474;SDS011;11910;52.086;21.066;2023-03-05T08:42:56;9.43;;;5.03;;
23474;SDS011;11910;52.086;21.066;2023-03-05T08:45:24;11.30;;;5.28;;
23474;SDS011;11910;52.086;21.066;2023-03-05T08:47:52;11.93;;;6.50;;
23474;SDS011;11910;52.086;21.066;2023-03-05T08:50:21;10.95;;;5.65;;
23474;SDS011;11910;52.086;21.066;2023-03-05T08:52:48;12.07;;;5.60;;
23474;SDS011;11910;52.086;21.066;2023-03-05T08:55:14;9.90;;;4.90;;
23474;SDS011;11910;52.086;21.066;2023-03-05T08:57:39;11.80;;;5.03;;
23474;SDS011;11910;52.086;21.066;2023-03-05T09:00:05;10.80;;;5.63;;
23474;SDS011;11910;52.086;21.066;2023-03-05T09:02:32;11.52;;;5.90;;
23474;SDS011;11910;52.086;21.066;2023-03-05T09:04:57;11.80;;;6.28;;
23474;SDS011;11910;52.086;21.066;2023-03-05T09:07:23;11.75;;;5.85;;
23474;SDS011;11910;52.086;21.066;2023-03-05T09:09:48;12.85;;;5.53;;
23474;SDS011;11910;52.086;21.066;2023-03-05T09:12:14;10.50;;;5.32;;
23474;SDS011;11910;52.086;21.066;2023-03-05T09:14:40;11.90;;;5.53;;
23474;SDS011;11910;52.086;21.066;2023-03-05T09:17:06;11.40;;;5.88;;
23474;SDS011;11910;52.086;21.066;2023-03-05T09:19:32;13.00;;;5.72;;
23474;SDS011;11910;52.086;21.066;2023-03-05T09:21:57;9.95;;;5.50;;
23474;SDS011;11910;52.086;21.066;2023-03-05T09:24:23;13.35;;;6.32;;
23474;SDS011;11910;52.086;21.066;2023-03-05T09:26:48;15.13;;;6.30;;
23474;SDS011;11910;52.086;21.066;2023-03-05T09:29:14;13.98;;;6.47;;
23474;SDS011;11910;52.086;21.066;2023-03-05T09:31:40;14.15;;;6.60;;
23474;SDS011;11910;52.086;21.066;2023-03-05T09:34:07;12.40;;;6.60;;
23474;SDS011;11910;52.086;21.066;2023-03-05T09:36:33;12.40;;;6.70;;
23474;SDS011;11910;52.086;21.066;2023-03-05T09:38:59;12.93;;;6.70;;
23474;SDS011;11910;52.086;21.066;2023-03-05T09:52:33;12.93;;;6.80;;
23474;SDS011;11910;52.086;21.066;2023-03-05T09:55:08;13.80;;;6.97;;
23474;SDS011;11910;52.086;21.066;2023-03-05T09:57:53;17.25;;;7.30;;
23474;SDS011;11910;52.086;21.066;2023-03-05T10:03:30;18.35;;;8.30;;
23474;SDS011;11910;52.086;21.066;2023-03-05T10:09:06;15.13;;;8.10;;
23474;SDS011;11910;52.086;21.066;2023-03-05T10:11:59;17.10;;;7.25;;
23474;SDS011;11910;52.086;21.066;2023-03-05T10:14:35;17.23;;;7.47;;
23474;SDS011;11910;52.086;21.066;2023-03-05T10:17:09;14.90;;;7.45;;
23474;SDS011;11910;52.086;21.066;2023-03-05T10:25:56;16.42;;;7.50;;
23474;SDS011;11910;52.086;21.066;2023-03-05T10:44:54;10.95;;;4.25;;
23474;SDS011;11910;52.086;21.066;2023-03-05T10:47:24;10.48;;;4.10;;
23474;SDS011;11910;52.086;21.066;2023-03-05T10:50:17;8.48;;;4.00;;
23474;SDS011;11910;52.086;21.066;2023-03-05T10:55:34;9.88;;;4.63;;
23474;SDS011;11910;52.086;21.066;2023-03-05T10:58:00;12.95;;;4.68;;
23474;SDS011;11910;52.086;21.066;2023-03-05T11:00:34;11.23;;;5.10;;
23474;SDS011;11910;52.086;21.066;2023-03-05T11:03:07;9.05;;;4.65;;
23474;SDS011;11910;52.086;21.066;2023-03-05T11:11:02;11.52;;;4.97;;
23474;SDS011;11910;52.086;21.066;2023-03-05T11:16:24;10.18;;;5.00;;
23474;SDS011;11910;52.086;21.066;2023-03-05T11:19:52;11.55;;;4.70;;
23474;SDS011;11910;52.086;21.066;2023-03-05T11:24:41;11.18;;;5.47;;
23474;SDS011;11910;52.086;21.066;2023-03-05T11:27:22;10.13;;;5.63;;
23474;SDS011;11910;52.086;21.066;2023-03-05T11:32:21;9.73;;;5.25;;
23474;SDS011;11910;52.086;21.066;2023-03-05T11:34:49;10.63;;;5.85;;
23474;SDS011;11910;52.086;21.066;2023-03-05T11:37:22;12.68;;;5.80;;
23474;SDS011;11910;52.086;21.066;2023-03-05T11:42:43;10.88;;;5.75;;
23474;SDS011;11910;52.086;21.066;2023-03-05T11:45:13;13.18;;;6.05;;
23474;SDS011;11910;52.086;21.066;2023-03-05T11:47:49;12.07;;;6.20;;
23474;SDS011;11910;52.086;21.066;2023-03-05T11:55:48;12.90;;;7.50;;
23474;SDS011;11910;52.086;21.066;2023-03-05T11:58:21;10.27;;;6.45;;
23474;SDS011;11910;52.086;21.066;2023-03-05T12:00:54;13.98;;;7.38;;
23474;SDS011;11910;52.086;21.066;2023-03-05T12:03:21;16.08;;;8.55;;
23474;SDS011;11910;52.086;21.066;2023-03-05T12:05:51;16.95;;;8.93;;
23474;SDS011;11910;52.086;21.066;2023-03-05T12:08:23;17.83;;;8.98;;
23474;SDS011;11910;52.086;21.066;2023-03-05T12:10:53;18.17;;;9.00;;
23474;SDS011;11910;52.086;21.066;2023-03-05T12:13:22;16.17;;;9.05;;
23474;SDS011;11910;52.086;21.066;2023-03-05T12:18:53;21.73;;;8.00;;
23474;SDS011;11910;52.086;21.066;2023-03-05T12:21:41;15.82;;;8.18;;
23474;SDS011;11910;52.086;21.066;2023-03-05T12:31:54;13.68;;;7.55;;
23474;SDS011;11910;52.086;21.066;2023-03-05T12:34:41;14.68;;;7.85;;
23474;SDS011;11910;52.086;21.066;2023-03-05T12:37:12;12.82;;;7.70;;
23474;SDS011;11910;52.086;21.066;2023-03-05T12:47:40;15.60;;;7.80;;
23474;SDS011;11910;52.086;21.066;2023-03-05T12:52:51;14.98;;;9.48;;
23474;SDS011;11910;52.086;21.066;2023-03-05T12:58:18;14.90;;;9.00;;
23474;SDS011;11910;52.086;21.066;2023-03-05T13:01:06;14.68;;;8.95;;
23474;SDS011;11910;52.086;21.066;2023-03-05T13:03:52;13.57;;;8.70;;
23474;SDS011;11910;52.086;21.066;2023-03-05T13:06:31;19.17;;;9.02;;
23474;SDS011;11910;52.086;21.066;2023-03-05T13:09:00;15.02;;;8.05;;
23474;SDS011;11910;52.086;21.066;2023-03-05T13:11:28;15.00;;;8.43;;
23474;SDS011;11910;52.086;21.066;2023-03-05T13:13:55;16.98;;;8.90;;
23474;SDS011;11910;52.086;21.066;2023-03-05T13:16:23;16.48;;;9.20;;
23474;SDS011;11910;52.086;21.066;2023-03-05T13:18:53;13.73;;;9.27;;
23474;SDS011;11910;52.086;21.066;2023-03-05T13:21:25;14.20;;;9.00;;
23474;SDS011;11910;52.086;21.066;2023-03-05T13:23:56;17.05;;;10.20;;
23474;SDS011;11910;52.086;21.066;2023-03-05T13:26:25;17.00;;;9.75;;
23474;SDS011;11910;52.086;21.066;2023-03-05T13:29:10;16.73;;;8.68;;
23474;SDS011;11910;52.086;21.066;2023-03-05T13:31:50;17.48;;;7.93;;
23474;SDS011;11910;52.086;21.066;2023-03-05T13:34:22;12.00;;;7.53;;
23474;SDS011;11910;52.086;21.066;2023-03-05T13:37:00;16.40;;;9.68;;
23474;SDS011;11910;52.086;21.066;2023-03-05T13:39:29;17.23;;;9.48;;
23474;SDS011;11910;52.086;21.066;2023-03-05T13:44:40;18.35;;;9.13;;
23474;SDS011;11910;52.086;21.066;2023-03-05T13:47:17;16.80;;;9.65;;
23474;SDS011;11910;52.086;21.066;2023-03-05T13:49:44;21.42;;;11.60;;
23474;SDS011;11910;52.086;21.066;2023-03-05T13:52:11;18.05;;;10.10;;
23474;SDS011;11910;52.086;21.066;2023-03-05T13:54:47;16.08;;;9.57;;
23474;SDS011;11910;52.086;21.066;2023-03-05T13:57:31;14.90;;;8.50;;
23474;SDS011;11910;52.086;21.066;2023-03-05T13:59:56;12.25;;;7.63;;
23474;SDS011;11910;52.086;21.066;2023-03-05T14:02:22;11.30;;;7.18;;
23474;SDS011;11910;52.086;21.066;2023-03-05T14:04:48;13.52;;;8.00;;
23474;SDS011;11910;52.086;21.066;2023-03-05T14:07:35;16.23;;;8.65;;
23474;SDS011;11910;52.086;21.066;2023-03-05T14:12:54;16.52;;;9.65;;
23474;SDS011;11910;52.086;21.066;2023-03-05T14:17:49;15.73;;;8.77;;
23474;SDS011;11910;52.086;21.066;2023-03-05T14:20:20;12.90;;;8.15;;
23474;SDS011;11910;52.086;21.066;2023-03-05T14:23:01;14.55;;;9.00;;
23474;SDS011;11910;52.086;21.066;2023-03-05T14:34:12;15.70;;;7.82;;
23474;SDS011;11910;52.086;21.066;2023-03-05T14:36:48;13.55;;;7.30;;
23474;SDS011;11910;52.086;21.066;2023-03-05T14:39:23;11.90;;;6.85;;
23474;SDS011;11910;52.086;21.066;2023-03-05T14:41:54;11.02;;;6.28;;
23474;SDS011;11910;52.086;21.066;2023-03-05T14:44:19;14.88;;;7.43;;
23474;SDS011;11910;52.086;21.066;2023-03-05T14:46:49;12.70;;;7.20;;
23474;SDS011;11910;52.086;21.066;2023-03-05T14:49:15;12.07;;;7.68;;
23474;SDS011;11910;52.086;21.066;2023-03-05T14:51:41;16.98;;;9.40;;
23474;SDS011;11910;52.086;21.066;2023-03-05T14:54:22;17.63;;;9.93;;
23474;SDS011;11910;52.086;21.066;2023-03-05T14:56:50;15.45;;;9.10;;
23474;SDS011;11910;52.086;21.066;2023-03-05T14:59:17;14.75;;;9.00;;
23474;SDS011;11910;52.086;21.066;2023-03-05T15:01:43;20.67;;;11.43;;
23474;SDS011;11910;52.086;21.066;2023-03-05T15:04:08;18.33;;;10.88;;
23474;SDS011;11910;52.086;21.066;2023-03-05T15:06:35;16.10;;;9.73;;
23474;SDS011;11910;52.086;21.066;2023-03-05T15:09:03;17.25;;;9.40;;
23474;SDS011;11910;52.086;21.066;2023-03-05T15:11:30;16.35;;;9.40;;
23474;SDS011;11910;52.086;21.066;2023-03-05T15:13:55;14.18;;;9.18;;
23474;SDS011;11910;52.086;21.066;2023-03-05T15:16:21;17.00;;;10.65;;
23474;SDS011;11910;52.086;21.066;2023-03-05T15:18:47;19.67;;;10.77;;
23474;SDS011;11910;52.086;21.066;2023-03-05T15:21:13;16.02;;;10.20;;
23474;SDS011;11910;52.086;21.066;2023-03-05T15:23:39;18.58;;;10.27;;
23474;SDS011;11910;52.086;21.066;2023-03-05T15:26:06;16.20;;;9.73;;
23474;SDS011;11910;52.086;21.066;2023-03-05T15:28:34;16.33;;;9.73;;
23474;SDS011;11910;52.086;21.066;2023-03-05T15:31:01;19.20;;;10.48;;
23474;SDS011;11910;52.086;21.066;2023-03-05T15:33:29;21.00;;;10.40;;
23474;SDS011;11910;52.086;21.066;2023-03-05T15:35:55;16.52;;;9.82;;
23474;SDS011;11910;52.086;21.066;2023-03-05T15:38:21;17.38;;;10.25;;
23474;SDS011;11910;52.086;21.066;2023-03-05T15:40:47;16.20;;;10.30;;
23474;SDS011;11910;52.086;21.066;2023-03-05T15:43:14;19.05;;;10.73;;
23474;SDS011;11910;52.086;21.066;2023-03-05T15:45:40;16.63;;;10.20;;
23474;SDS011;11910;52.086;21.066;2023-03-05T15:48:06;18.98;;;10.73;;
23474;SDS011;11910;52.086;21.066;2023-03-05T15:50:32;19.75;;;10.73;;
23474;SDS011;11910;52.086;21.066;2023-03-05T15:52:57;18.98;;;10.95;;
23474;SDS011;11910;52.086;21.066;2023-03-05T15:55:23;23.50;;;11.82;;
23474;SDS011;11910;52.086;21.066;2023-03-05T15:57:49;20.42;;;12.05;;
23474;SDS011;11910;52.086;21.066;2023-03-05T16:00:17;23.42;;;13.27;;
23474;SDS011;11910;52.086;21.066;2023-03-05T16:02:47;21.05;;;13.18;;
23474;SDS011;11910;52.086;21.066;2023-03-05T16:05:13;25.10;;;14.55;;
23474;SDS011;11910;52.086;21.066;2023-03-05T16:07:39;20.25;;;11.20;;
23474;SDS011;11910;52.086;21.066;2023-03-05T16:10:12;19.85;;;11.10;;
23474;SDS011;11910;52.086;21.066;2023-03-05T16:12:41;23.88;;;12.80;;
23474;SDS011;11910;52.086;21.066;2023-03-05T16:15:11;24.00;;;12.98;;
23474;SDS011;11910;52.086;21.066;2023-03-05T16:17:40;18.75;;;11.25;;